createdAt,value
2017-08-21T00:02:20.506Z,101874.75
2017-08-21T00:04:49.458Z,101872.32
2017-08-21T00:07:17.834Z,101870.30
2017-08-21T00:09:46.183Z,101865.42
2017-08-21T00:12:14.564Z,101868.61
2017-08-21T00:14:42.917Z,101874.87
2017-08-21T00:17:11.259Z,101876.66
2017-08-21T00:19:39.649Z,101869.79
2017-08-21T00:22:07.997Z,101881.71
2017-08-21T00:24:36.363Z,101881.02
2017-08-21T00:27:05.181Z,101883.00
2017-08-21T00:29:33.555Z,101882.06
2017-08-21T00:32:01.902Z,101876.42
2017-08-21T00:34:30.281Z,101873.77
2017-08-21T00:36:59.385Z,101863.71
2017-08-21T00:39:27.726Z,101863.68
2017-08-21T00:41:56.357Z,101862.40
2017-08-21T00:44:24.947Z,101873.97
2017-08-21T00:46:53.337Z,101874.05
2017-08-21T00:49:21.788Z,101869.34
2017-08-21T00:51:50.201Z,101865.58
2017-08-21T00:54:18.607Z,101872.72
2017-08-21T00:56:46.998Z,101875.06
2017-08-21T00:59:15.375Z,101878.89
2017-08-21T01:01:43.744Z,101877.13
2017-08-21T01:04:12.701Z,101874.00
2017-08-21T01:06:41.055Z,101875.33
2017-08-21T01:09:09.456Z,101872.77
2017-08-21T01:11:37.912Z,101879.14
2017-08-21T01:14:06.263Z,101879.19
2017-08-21T01:16:34.635Z,101869.97
2017-08-21T01:19:03.054Z,101873.98
2017-08-21T01:21:31.445Z,101866.48
2017-08-21T01:23:59.862Z,101866.61
2017-08-21T01:26:28.241Z,101870.11
2017-08-21T01:28:56.594Z,101866.19
2017-08-21T01:31:25.603Z,101867.64
2017-08-21T01:33:54.087Z,101869.01
2017-08-21T01:36:22.447Z,101862.80
2017-08-21T01:38:50.821Z,101868.86
2017-08-21T01:41:19.959Z,101861.29
2017-08-21T01:43:48.536Z,101866.20
2017-08-21T01:46:16.902Z,101863.27
2017-08-21T01:48:45.339Z,101860.11
2017-08-21T01:51:13.734Z,101865.74
2017-08-21T01:53:42.126Z,101864.27
2017-08-21T01:56:10.802Z,101867.19
2017-08-21T01:58:39.323Z,101858.36
2017-08-21T02:01:07.719Z,101854.22
2017-08-21T02:03:36.168Z,101854.75
2017-08-21T02:06:04.657Z,101843.89
2017-08-21T02:08:33.050Z,101847.73
2017-08-21T02:11:01.524Z,101839.75
2017-08-21T02:13:29.877Z,101840.55
2017-08-21T02:15:58.238Z,101837.63
2017-08-21T02:18:27.206Z,101840.53
2017-08-21T02:20:55.637Z,101843.17
2017-08-21T02:23:24.036Z,101838.33
2017-08-21T02:25:52.549Z,101842.20
2017-08-21T02:28:21.030Z,101843.75
2017-08-21T02:30:49.529Z,101845.27
2017-08-21T02:33:18.122Z,101851.87
2017-08-21T02:35:46.521Z,101860.13
2017-08-21T02:38:32.707Z,101849.66
2017-08-21T02:41:01.079Z,101850.61
2017-08-21T02:43:29.466Z,101853.53
2017-08-21T02:45:58.426Z,101849.80
2017-08-21T02:48:26.810Z,101841.55
2017-08-21T02:50:55.195Z,101844.69
2017-08-21T02:53:23.658Z,101843.33
2017-08-21T02:55:52.352Z,101848.31
2017-08-21T02:58:20.742Z,101837.87
2017-08-21T03:00:49.715Z,101844.95
2017-08-21T03:03:18.923Z,101845.41
2017-08-21T03:05:47.405Z,101847.11
2017-08-21T03:08:15.913Z,101845.41
2017-08-21T03:10:44.282Z,101841.83
2017-08-21T03:13:12.629Z,101846.61
2017-08-21T03:15:41.011Z,101846.79
2017-08-21T03:18:09.388Z,101850.45
2017-08-21T03:20:37.773Z,101851.03
2017-08-21T03:23:06.603Z,101847.10
2017-08-21T03:25:34.976Z,101857.47
2017-08-21T03:28:03.356Z,101856.44
2017-08-21T03:30:31.740Z,101863.95
2017-08-21T03:33:00.872Z,101860.45
2017-08-21T03:35:29.230Z,101856.53
2017-08-21T03:37:57.603Z,101855.14
2017-08-21T03:40:25.950Z,101857.62
2017-08-21T03:42:55.266Z,101856.36
2017-08-21T03:45:23.813Z,101858.41
2017-08-21T03:47:52.197Z,101864.81
2017-08-21T03:50:20.551Z,101865.92
2017-08-21T03:52:49.188Z,101870.78
2017-08-21T03:55:17.562Z,101867.30
2017-08-21T03:57:45.950Z,101869.34
2017-08-21T04:00:15.117Z,101868.47
2017-08-21T04:02:43.469Z,101872.58
2017-08-21T04:05:12.027Z,101860.13
2017-08-21T04:07:41.159Z,101867.63
2017-08-21T04:10:09.525Z,101861.39
2017-08-21T04:12:37.912Z,101865.23
2017-08-21T04:15:06.299Z,101862.48
2017-08-21T04:17:34.681Z,101863.61
2017-08-21T04:20:03.782Z,101866.27
2017-08-21T04:22:32.167Z,101861.57
2017-08-21T04:25:00.530Z,101865.66
2017-08-21T04:27:28.870Z,101868.66
2017-08-21T04:29:57.413Z,101874.03
2017-08-21T04:32:26.189Z,101871.20
2017-08-21T04:34:54.555Z,101872.75
2017-08-21T04:37:22.977Z,101869.59
2017-08-21T04:39:51.356Z,101865.15
2017-08-21T04:42:19.722Z,101867.72
2017-08-21T04:44:48.123Z,101867.63
2017-08-21T04:47:16.539Z,101877.27
2017-08-21T04:49:44.893Z,101880.60
2017-08-21T04:52:13.352Z,101878.80
2017-08-21T04:54:41.708Z,101877.16
2017-08-21T04:57:10.087Z,101871.02
2017-08-21T04:59:38.475Z,101876.00
2017-08-21T05:02:07.622Z,101871.22
2017-08-21T05:04:35.968Z,101874.51
2017-08-21T05:07:04.481Z,101874.75
2017-08-21T05:09:32.832Z,101883.23
2017-08-21T05:12:01.184Z,101869.94
2017-08-21T05:14:29.649Z,101875.62
2017-08-21T05:16:58.023Z,101873.03
2017-08-21T05:19:26.384Z,101874.36
2017-08-21T05:21:54.766Z,101869.83
2017-08-21T05:24:24.029Z,101871.03
2017-08-21T05:26:52.365Z,101876.84
2017-08-21T05:29:20.757Z,101876.59
2017-08-21T05:31:49.090Z,101873.91
2017-08-21T05:34:18.016Z,101887.00
2017-08-21T05:36:46.535Z,101872.05
2017-08-21T05:39:14.972Z,101874.70
2017-08-21T05:41:43.318Z,101878.41
2017-08-21T05:44:12.689Z,101879.80
2017-08-21T05:46:41.067Z,101881.53
2017-08-21T05:49:09.433Z,101882.84
2017-08-21T05:51:37.830Z,101882.64
2017-08-21T05:54:06.219Z,101877.34
2017-08-21T05:56:34.600Z,101881.37
2017-08-21T05:59:03.805Z,101884.83
2017-08-21T06:01:32.174Z,101892.07
2017-08-21T06:04:00.534Z,101890.56
2017-08-21T06:06:28.930Z,101890.03
2017-08-21T06:08:57.690Z,101890.23
2017-08-21T06:11:26.046Z,101888.79
2017-08-21T06:13:54.412Z,101894.09
2017-08-21T06:16:23.338Z,101887.91
2017-08-21T06:18:51.671Z,101890.34
2017-08-21T06:21:20.909Z,101890.23
2017-08-21T06:23:49.264Z,101885.61
2017-08-21T06:26:17.610Z,101894.80
2017-08-21T06:28:46.633Z,101896.83
2017-08-21T06:31:15.012Z,101900.95
2017-08-21T06:33:43.513Z,101902.60
2017-08-21T06:36:12.794Z,101898.53
2017-08-21T06:38:41.180Z,101908.17
2017-08-21T06:41:09.852Z,101901.06
2017-08-21T06:43:38.593Z,101905.83
2017-08-21T06:46:07.078Z,101917.27
2017-08-21T06:48:35.437Z,101913.58
2017-08-21T06:51:03.853Z,101919.22
2017-08-21T06:53:32.215Z,101914.92
2017-08-21T06:56:00.593Z,101913.69
2017-08-21T06:58:29.047Z,101916.49
2017-08-21T07:00:57.487Z,101912.86
2017-08-21T07:03:25.889Z,101924.59
2017-08-21T07:05:54.675Z,101914.38
2017-08-21T07:08:23.049Z,101918.58
2017-08-21T07:10:51.437Z,101914.01
2017-08-21T07:13:19.841Z,101916.65
2017-08-21T07:15:48.221Z,101915.41
2017-08-21T07:18:16.573Z,101920.24
2017-08-21T07:20:44.951Z,101911.80
2017-08-21T07:23:13.302Z,101919.44
2017-08-21T07:25:41.647Z,101912.02
2017-08-21T07:28:10.713Z,101913.64
2017-08-21T07:30:39.074Z,101912.02
2017-08-21T07:33:07.455Z,101912.73
2017-08-21T07:35:35.854Z,101910.95
2017-08-21T07:38:04.200Z,101919.56
2017-08-21T07:40:32.546Z,101918.78
2017-08-21T07:43:01.397Z,101921.84
2017-08-21T07:45:29.760Z,101920.30
2017-08-21T07:47:58.154Z,101919.74
2017-08-21T07:50:26.601Z,101920.08
2017-08-21T07:52:55.037Z,101917.66
2017-08-21T07:55:23.453Z,101908.31
2017-08-21T07:57:51.845Z,101918.62
2017-08-21T08:00:20.599Z,101911.67
2017-08-21T08:02:48.963Z,101912.78
2017-08-21T08:05:17.347Z,101925.52
2017-08-21T08:07:45.691Z,101930.36
2017-08-21T08:10:14.063Z,101923.69
2017-08-21T08:12:42.699Z,101928.33
2017-08-21T08:15:11.060Z,101930.33
2017-08-21T08:17:39.439Z,101931.34
2017-08-21T08:20:07.842Z,101927.09
2017-08-21T08:22:36.235Z,101939.09
2017-08-21T08:25:04.588Z,101920.12
2017-08-21T08:27:33.007Z,101932.55
2017-08-21T08:30:01.429Z,101928.82
2017-08-21T08:32:29.780Z,101935.10
2017-08-21T08:34:58.578Z,101931.69
2017-08-21T08:37:26.922Z,101931.22
2017-08-21T08:39:55.288Z,101936.59
2017-08-21T08:42:23.695Z,101931.83
2017-08-21T08:44:52.847Z,101934.05
2017-08-21T08:47:21.210Z,101941.15
2017-08-21T08:49:49.602Z,101939.36
2017-08-21T08:52:17.962Z,101936.62
2017-08-21T08:54:46.332Z,101939.29
2017-08-21T08:57:14.754Z,101938.72
2017-08-21T08:59:43.090Z,101947.31
2017-08-21T09:02:12.226Z,101941.52
2017-08-21T09:04:40.607Z,101937.31
2017-08-21T09:07:09.951Z,101934.19
2017-08-21T09:09:38.319Z,101936.56
2017-08-21T09:12:06.700Z,101933.39
2017-08-21T09:14:35.067Z,101940.77
2017-08-21T09:17:03.413Z,101935.94
2017-08-21T09:19:31.921Z,101931.99
2017-08-21T09:22:00.997Z,101931.46
2017-08-21T09:24:29.362Z,101941.48
2017-08-21T09:26:57.751Z,101938.94
2017-08-21T09:29:26.123Z,101940.46
2017-08-21T09:31:54.507Z,101931.55
2017-08-21T09:34:22.894Z,101937.00
2017-08-21T09:36:51.240Z,101943.81
2017-08-21T09:39:19.606Z,101939.02
2017-08-21T09:41:49.377Z,101938.07
2017-08-21T09:44:17.748Z,101933.70
2017-08-21T09:46:46.114Z,101940.62
2017-08-21T09:49:14.493Z,101938.05
2017-08-21T09:51:42.817Z,101943.59
2017-08-21T09:54:11.186Z,101942.95
2017-08-21T09:56:39.561Z,101944.48
2017-08-21T09:59:07.918Z,101947.17
2017-08-21T10:01:36.298Z,101961.81
2017-08-21T10:04:05.433Z,101957.11
2017-08-21T10:06:33.821Z,101962.25
2017-08-21T10:09:02.794Z,101965.13
2017-08-21T10:11:31.172Z,101966.53
2017-08-21T10:13:59.529Z,101970.97
2017-08-21T10:16:27.862Z,101964.09
2017-08-21T10:18:56.286Z,101961.08
2017-08-21T10:21:24.653Z,101975.50
2017-08-21T10:23:53.034Z,101976.81
2017-08-21T10:26:21.489Z,101999.37
2017-08-21T10:28:49.836Z,102002.80
2017-08-21T10:31:18.181Z,102003.68
2017-08-21T10:33:46.581Z,101989.31
2017-08-21T10:36:14.955Z,101989.28
2017-08-21T10:38:43.326Z,101993.00
2017-08-21T10:41:11.720Z,102001.80
2017-08-21T10:43:40.097Z,101999.94
2017-08-21T10:46:08.463Z,101995.05
2017-08-21T10:48:37.060Z,101996.38
2017-08-21T10:51:05.436Z,101992.75
2017-08-21T10:53:33.800Z,101982.34
2017-08-21T10:56:02.214Z,101985.45
2017-08-21T10:58:30.577Z,101981.55
2017-08-21T11:00:58.958Z,101975.67
2017-08-21T11:03:27.322Z,101977.80
2017-08-21T11:05:55.924Z,101971.11
2017-08-21T11:08:24.296Z,101978.08
2017-08-21T11:10:53.589Z,101973.44
2017-08-21T11:13:21.932Z,101975.63
2017-08-21T11:15:50.295Z,101964.42
2017-08-21T11:18:18.727Z,101965.70
2017-08-21T11:20:47.093Z,101963.53
2017-08-21T11:23:15.442Z,101959.57
2017-08-21T11:25:43.828Z,101955.80
2017-08-21T11:28:12.198Z,101959.67
2017-08-21T11:30:41.185Z,101951.13
2017-08-21T11:33:09.910Z,101946.79
2017-08-21T11:35:38.900Z,101944.48
2017-08-21T11:38:07.259Z,101947.57
2017-08-21T11:40:35.643Z,101938.91
2017-08-21T11:43:04.033Z,101943.63
2017-08-21T11:45:32.396Z,101940.83
2017-08-21T11:48:00.804Z,101933.06
2017-08-21T11:50:29.187Z,101927.70
2017-08-21T11:52:57.535Z,101935.47
2017-08-21T11:55:26.466Z,101931.93
2017-08-21T11:57:54.865Z,101930.28
2017-08-21T12:00:24.045Z,101932.63
2017-08-21T12:02:52.426Z,101928.35
2017-08-21T12:05:20.898Z,101924.25
2017-08-21T12:07:49.241Z,101925.28
2017-08-21T12:10:17.628Z,101919.80
2017-08-21T12:12:45.994Z,101923.68
2017-08-21T12:15:14.350Z,101915.61
2017-08-21T12:17:43.557Z,101909.39
2017-08-21T12:20:11.988Z,101917.11
2017-08-21T12:22:40.396Z,101919.02
2017-08-21T12:25:08.793Z,101918.88
2017-08-21T12:27:38.394Z,101911.49
2017-08-21T12:30:06.748Z,101919.57
2017-08-21T12:32:35.179Z,101923.44
2017-08-21T12:35:03.655Z,101919.92
2017-08-21T12:37:32.066Z,101915.50
2017-08-21T12:40:00.505Z,101914.24
2017-08-21T12:42:28.873Z,101908.19
2017-08-21T12:44:57.221Z,101907.30
2017-08-21T12:47:25.583Z,101903.21
2017-08-21T12:49:54.721Z,101911.29
2017-08-21T12:52:23.082Z,101907.13
2017-08-21T12:54:51.453Z,101911.54
2017-08-21T12:57:19.798Z,101926.51
2017-08-21T12:59:48.174Z,101939.75
2017-08-21T13:02:16.790Z,101952.72
2017-08-21T13:04:45.197Z,101951.45
2017-08-21T13:07:13.568Z,101943.81
2017-08-21T13:09:41.959Z,101931.08
2017-08-21T13:12:10.332Z,101921.94
2017-08-21T13:14:38.686Z,101930.20
2017-08-21T13:17:07.111Z,101936.88
2017-08-21T13:19:35.500Z,101928.77
2017-08-21T13:22:03.856Z,101925.60
2017-08-21T13:24:32.300Z,101919.41
2017-08-21T13:27:00.648Z,101930.56
2017-08-21T13:29:29.031Z,101933.82
2017-08-21T13:31:58.234Z,101936.91
2017-08-21T13:34:26.639Z,101934.25
2017-08-21T13:36:55.015Z,101937.34
2017-08-21T13:39:23.433Z,101938.11
2017-08-21T13:41:51.778Z,101927.78
2017-08-21T13:44:20.156Z,101931.16
2017-08-21T13:46:48.584Z,101933.89
2017-08-21T13:49:16.943Z,101922.13
2017-08-21T13:51:45.298Z,101925.08
2017-08-21T13:54:13.692Z,101926.53
2017-08-21T13:56:42.026Z,101916.88
2017-08-21T13:59:10.400Z,101918.60
2017-08-21T14:01:38.807Z,101924.91
2017-08-21T14:04:07.165Z,101926.66
2017-08-21T14:06:35.576Z,101923.16
2017-08-21T14:09:04.304Z,101925.86
2017-08-21T14:11:32.786Z,101926.72
2017-08-21T14:14:01.145Z,101926.13
2017-08-21T14:16:29.553Z,101933.25
2017-08-21T14:18:57.905Z,101930.02
2017-08-21T14:21:26.277Z,101934.95
2017-08-21T14:23:54.933Z,101933.67
2017-08-21T14:26:23.722Z,101939.02
2017-08-21T14:28:52.098Z,101942.87
2017-08-21T14:31:21.002Z,101942.12
2017-08-21T14:33:49.448Z,101944.96
2017-08-21T14:36:17.861Z,101936.34
2017-08-21T14:38:46.364Z,101939.23
2017-08-21T14:41:14.791Z,101937.86
2017-08-21T14:43:43.331Z,101940.68
2017-08-21T14:46:11.703Z,101928.20
2017-08-21T14:48:40.067Z,101933.39
2017-08-21T14:51:08.440Z,101932.45
2017-08-21T14:53:37.147Z,101936.00
2017-08-21T14:56:05.526Z,101936.73
2017-08-21T14:58:33.966Z,101936.31
2017-08-21T15:01:03.103Z,101931.09
2017-08-21T15:03:31.515Z,101925.50
2017-08-21T15:05:59.951Z,101923.67
2017-08-21T15:08:28.435Z,101924.69
2017-08-21T15:10:56.830Z,101928.73
2017-08-21T15:13:25.199Z,101927.86
2017-08-21T15:15:53.693Z,101937.02
2017-08-21T15:18:22.051Z,101936.64
2017-08-21T15:20:50.397Z,101940.72
2017-08-21T15:23:19.030Z,101932.60
2017-08-21T15:25:47.623Z,101936.34
2017-08-21T15:28:17.102Z,101942.49
2017-08-21T15:30:45.504Z,101945.89
2017-08-21T15:33:13.933Z,101947.07
2017-08-21T15:35:43.060Z,101939.27
2017-08-21T15:38:11.731Z,101938.77
2017-08-21T15:40:40.081Z,101941.11
2017-08-21T15:43:08.448Z,101937.53
2017-08-21T15:45:37.822Z,101936.02
2017-08-21T15:48:06.253Z,101937.27
2017-08-21T15:50:34.636Z,101936.73
2017-08-21T15:53:03.119Z,101929.86
2017-08-21T15:55:31.589Z,101932.27
2017-08-21T15:58:00.850Z,101930.76
2017-08-21T16:00:30.123Z,101935.02
2017-08-21T16:02:58.530Z,101931.08
2017-08-21T16:05:26.966Z,101934.00
2017-08-21T16:07:55.385Z,101935.92
2017-08-21T16:10:23.799Z,101942.64
2017-08-21T16:12:52.269Z,101944.22
2017-08-21T16:15:20.733Z,101944.41
2017-08-21T16:17:49.553Z,101952.18
2017-08-21T16:20:18.439Z,101943.44
2017-08-21T16:22:47.285Z,101935.55
2017-08-21T16:25:15.622Z,101940.08
2017-08-21T16:27:43.998Z,101939.03
2017-08-21T16:30:12.683Z,101941.38
2017-08-21T16:32:41.120Z,101934.46
2017-08-21T16:35:09.502Z,101945.09
2017-08-21T16:37:37.940Z,101933.48
2017-08-21T16:40:07.099Z,101938.91
2017-08-21T16:42:35.512Z,101937.86
2017-08-21T16:45:04.309Z,101940.80
2017-08-21T16:47:32.677Z,101934.95
2017-08-21T16:50:01.043Z,101938.27
2017-08-21T16:52:29.453Z,101936.02
2017-08-21T16:54:57.882Z,101930.58
2017-08-21T16:57:26.378Z,101940.69
2017-08-21T16:59:54.767Z,101940.70
2017-08-21T17:02:23.230Z,101942.20
2017-08-21T17:04:51.603Z,101946.33
2017-08-21T17:07:21.082Z,101942.48
2017-08-21T17:09:49.572Z,101944.59
2017-08-21T17:12:17.949Z,101942.84
2017-08-21T17:14:46.329Z,101949.34
2017-08-21T17:17:15.393Z,101956.21
2017-08-21T17:19:43.774Z,101954.04
2017-08-21T17:22:12.394Z,101962.04
2017-08-21T17:24:40.767Z,101964.89
2017-08-21T17:27:09.142Z,101966.65
2017-08-21T17:29:37.628Z,101972.13
2017-08-21T17:32:05.966Z,101976.24
2017-08-21T17:34:35.145Z,101971.44
2017-08-21T17:37:03.549Z,101973.36
2017-08-21T17:39:31.901Z,101972.19
2017-08-21T17:42:00.266Z,101973.88
2017-08-21T17:44:28.886Z,101976.54
2017-08-21T17:46:57.272Z,101973.52
2017-08-21T17:49:26.524Z,101976.15
2017-08-21T17:51:55.395Z,101976.80
2017-08-21T17:54:23.772Z,101976.53
2017-08-21T17:56:52.142Z,101973.05
2017-08-21T17:59:20.636Z,101982.01
2017-08-21T18:01:48.994Z,101977.66
2017-08-21T18:04:17.343Z,101976.60
2017-08-21T18:06:45.720Z,101982.35
2017-08-21T18:09:14.118Z,101978.77
2017-08-21T18:11:42.506Z,101985.31
2017-08-21T18:14:11.766Z,101983.58
2017-08-21T18:16:40.164Z,101982.27
2017-08-21T18:19:08.527Z,101987.42
2017-08-21T18:21:37.710Z,101989.09
2017-08-21T18:24:06.061Z,101985.95
2017-08-21T18:26:34.424Z,101985.09
2017-08-21T18:29:02.805Z,101985.78
2017-08-21T18:31:31.186Z,101978.70
2017-08-21T18:33:59.563Z,101984.17
2017-08-21T18:36:27.974Z,101982.11
2017-08-21T18:38:56.364Z,101982.37
2017-08-21T18:41:24.745Z,101986.56
2017-08-21T18:43:53.312Z,101989.47
2017-08-21T18:46:21.713Z,101992.22
2017-08-21T18:48:50.080Z,101993.50
2017-08-21T18:51:18.793Z,102004.92
2017-08-21T18:53:47.376Z,102008.71
2017-08-21T18:56:15.739Z,102002.86
2017-08-21T18:58:44.522Z,102010.68
2017-08-21T19:01:12.887Z,102004.97
2017-08-21T19:03:41.266Z,102011.59
2017-08-21T19:06:09.963Z,102007.72
2017-08-21T19:08:38.323Z,102014.16
2017-08-21T19:11:06.715Z,102020.52
2017-08-21T19:13:36.315Z,102014.50
2017-08-21T19:16:04.683Z,102017.44
2017-08-21T19:18:33.019Z,102013.56
2017-08-21T19:21:02.159Z,102017.54
2017-08-21T19:23:30.524Z,102026.39
2017-08-21T19:25:58.871Z,102029.66
2017-08-21T19:28:27.404Z,102034.67
2017-08-21T19:30:55.750Z,102037.47
2017-08-21T19:33:24.116Z,102027.89
2017-08-21T19:35:53.089Z,102030.26
2017-08-21T19:38:21.539Z,102034.33
2017-08-21T19:40:50.573Z,102033.66
2017-08-21T19:43:19.170Z,102033.77
2017-08-21T19:45:47.553Z,102042.75
2017-08-21T19:48:15.903Z,102032.59
2017-08-21T19:50:45.495Z,102043.59
2017-08-21T19:53:14.644Z,102039.47
2017-08-21T19:55:43.007Z,102040.47
2017-08-21T19:58:11.553Z,102043.12
2017-08-21T20:00:39.939Z,102046.17
2017-08-21T20:03:08.275Z,102043.28
2017-08-21T20:05:37.713Z,102046.50
2017-08-21T20:08:06.092Z,102040.06
2017-08-21T20:10:34.448Z,102042.94
2017-08-21T20:13:02.977Z,102044.84
2017-08-21T20:15:31.345Z,102042.48
2017-08-21T20:17:59.745Z,102042.39
2017-08-21T20:20:29.342Z,102044.20
2017-08-21T20:22:57.703Z,102042.38
2017-08-21T20:25:26.072Z,102047.73
2017-08-21T20:27:54.933Z,102042.86
2017-08-21T20:30:23.328Z,102038.84
2017-08-21T20:32:51.742Z,102039.36
2017-08-21T20:35:20.512Z,102048.98
2017-08-21T20:37:48.890Z,102041.73
2017-08-21T20:40:17.243Z,102045.91
2017-08-21T20:42:45.793Z,102037.68
2017-08-21T20:45:14.179Z,102042.11
2017-08-21T20:47:42.549Z,102053.75
2017-08-21T20:50:11.612Z,102047.41
2017-08-21T20:52:39.974Z,102053.81
2017-08-21T20:55:09.262Z,102058.80
2017-08-21T20:57:37.975Z,102057.38
2017-08-21T21:00:07.225Z,102056.37
2017-08-21T21:02:35.684Z,102053.05
2017-08-21T21:05:04.216Z,102054.52
2017-08-21T21:07:32.583Z,102048.52
2017-08-21T21:10:01.017Z,102048.19
2017-08-21T21:12:29.852Z,102048.30
2017-08-21T21:14:58.228Z,102048.45
2017-08-21T21:17:26.616Z,102049.33
2017-08-21T21:19:56.267Z,102046.77
2017-08-21T21:22:24.642Z,102046.86
2017-08-21T21:24:53.008Z,102049.27
2017-08-21T21:27:21.692Z,102041.75
2017-08-21T21:29:50.080Z,102044.83
2017-08-21T21:32:18.420Z,102048.43
2017-08-21T21:34:47.417Z,102048.80
2017-08-21T21:37:15.823Z,102043.33
2017-08-21T21:39:44.215Z,102039.91
2017-08-21T21:42:13.538Z,102038.20
2017-08-21T21:44:41.898Z,102030.84
2017-08-21T21:47:10.307Z,102035.21
2017-08-21T21:49:38.961Z,102036.17
2017-08-21T21:52:07.336Z,102035.91
2017-08-21T21:54:35.693Z,102035.50
2017-08-21T21:57:04.649Z,102039.78
2017-08-21T21:59:33.067Z,102037.73
2017-08-21T22:02:01.407Z,102044.65
2017-08-21T22:04:29.960Z,102038.48
2017-08-21T22:06:58.352Z,102033.86
2017-08-21T22:09:26.732Z,102032.34
2017-08-21T22:11:56.031Z,102033.02
2017-08-21T22:14:24.383Z,102027.47
2017-08-21T22:16:52.723Z,102033.37
2017-08-21T22:19:22.051Z,102035.77
2017-08-21T22:21:50.424Z,102037.13
2017-08-21T22:24:19.346Z,102039.02
2017-08-21T22:26:48.305Z,102038.75
2017-08-21T22:29:16.646Z,102037.55
2017-08-21T22:31:45.000Z,102032.42
2017-08-21T22:34:13.771Z,102029.69
2017-08-21T22:36:42.107Z,102033.75
2017-08-21T22:39:10.479Z,102030.15
2017-08-21T22:41:39.304Z,102031.33
2017-08-21T22:44:07.672Z,102032.46
2017-08-21T22:46:36.030Z,102039.30
2017-08-21T22:49:06.163Z,102036.36
2017-08-21T22:51:34.485Z,102033.19
2017-08-21T22:54:02.835Z,102037.67
2017-08-21T22:56:31.746Z,102030.88
2017-08-21T22:59:00.121Z,102027.94
2017-08-21T23:01:28.483Z,102028.27
2017-08-21T23:03:57.582Z,102021.08
2017-08-21T23:06:25.901Z,102023.91
2017-08-21T23:08:54.269Z,102022.47
2017-08-21T23:11:23.653Z,102025.94
2017-08-21T23:14:28.943Z,102019.92
2017-08-21T23:16:57.616Z,102023.69
2017-08-21T23:19:25.975Z,102023.37
2017-08-21T23:21:54.344Z,102024.48
2017-08-21T23:24:23.317Z,102022.51
2017-08-21T23:26:51.673Z,102027.56
2017-08-21T23:29:20.041Z,102021.59
2017-08-21T23:31:49.584Z,102022.09
2017-08-21T23:34:17.951Z,102019.95
2017-08-21T23:36:46.292Z,102018.84
2017-08-21T23:39:14.945Z,102016.21
2017-08-21T23:41:43.306Z,102010.89
2017-08-21T23:44:11.656Z,102024.88
2017-08-21T23:46:41.164Z,102020.52
2017-08-21T23:49:09.529Z,102022.25
2017-08-21T23:51:37.916Z,102015.88
2017-08-21T23:54:06.743Z,102024.89
2017-08-21T23:56:35.931Z,102023.79
2017-08-21T23:59:05.030Z,102022.64
